createdAt,value
2022-09-21T00:01:14.311Z,100.00
2022-09-21T00:03:42.152Z,100.00
2022-09-21T00:06:11.650Z,100.00
2022-09-21T00:08:38.200Z,100.00
2022-09-21T00:11:05.652Z,100.00
2022-09-21T00:13:33.637Z,100.00
2022-09-21T00:16:00.454Z,100.00
2022-09-21T00:18:27.105Z,100.00
2022-09-21T00:20:53.587Z,100.00
2022-09-21T00:23:20.510Z,100.00
2022-09-21T00:25:47.050Z,100.00
2022-09-21T00:28:13.477Z,100.00
2022-09-21T00:30:39.985Z,100.00
2022-09-21T00:33:06.922Z,100.00
2022-09-21T00:35:34.063Z,100.00
2022-09-21T00:38:02.378Z,100.00
2022-09-21T00:40:29.908Z,100.00
2022-09-21T00:43:16.378Z,100.00
2022-09-21T00:45:46.206Z,100.00
2022-09-21T00:48:12.768Z,100.00
2022-09-21T00:50:46.041Z,100.00
2022-09-21T00:53:13.645Z,100.00
2022-09-21T00:55:48.361Z,100.00
2022-09-21T00:58:22.519Z,100.00
2022-09-21T01:00:50.091Z,100.00
2022-09-21T01:03:17.273Z,100.00
2022-09-21T01:05:44.404Z,100.00
2022-09-21T01:08:13.847Z,100.00
2022-09-21T01:11:08.311Z,100.00
2022-09-21T01:13:48.472Z,100.00
2022-09-21T01:16:43.322Z,100.00
2022-09-21T01:19:41.558Z,100.00
2022-09-21T01:22:22.356Z,100.00
2022-09-21T01:24:51.980Z,100.00
2022-09-21T01:27:48.010Z,100.00
2022-09-21T01:30:20.215Z,100.00
2022-09-21T01:33:09.104Z,100.00
2022-09-21T01:35:44.834Z,100.00
2022-09-21T01:38:20.859Z,100.00
2022-09-21T01:40:52.453Z,100.00
2022-09-21T01:43:25.352Z,100.00
2022-09-21T01:45:54.857Z,100.00
2022-09-21T01:48:24.572Z,100.00
2022-09-21T01:50:55.573Z,100.00
2022-09-21T01:53:39.658Z,100.00
2022-09-21T01:56:15.942Z,100.00
2022-09-21T01:58:49.704Z,100.00
2022-09-21T02:01:20.973Z,100.00
2022-09-21T02:03:51.987Z,100.00
2022-09-21T02:06:19.342Z,100.00
2022-09-21T02:08:46.936Z,100.00
2022-09-21T02:11:13.959Z,100.00
2022-09-21T02:13:45.857Z,100.00
2022-09-21T02:16:36.458Z,100.00
2022-09-21T02:19:07.582Z,100.00
2022-09-21T02:21:51.917Z,100.00
2022-09-21T02:24:33.408Z,100.00
2022-09-21T02:27:04.086Z,100.00
2022-09-21T02:29:51.477Z,100.00
2022-09-21T02:32:24.342Z,100.00
2022-09-21T02:34:57.595Z,100.00
2022-09-21T02:37:32.788Z,100.00
2022-09-21T02:40:24.880Z,100.00
2022-09-21T02:43:15.410Z,100.00
2022-09-21T02:45:48.096Z,100.00
2022-09-21T02:48:18.295Z,100.00
2022-09-21T02:50:47.613Z,100.00
2022-09-21T02:53:17.155Z,100.00
2022-09-21T02:55:45.427Z,100.00
2022-09-21T02:58:16.076Z,100.00
2022-09-21T03:00:42.602Z,100.00
2022-09-21T03:03:21.203Z,100.00
2022-09-21T03:05:51.077Z,100.00
2022-09-21T03:08:18.412Z,100.00
2022-09-21T03:10:46.147Z,100.00
2022-09-21T03:13:13.096Z,100.00
2022-09-21T03:15:41.033Z,100.00
2022-09-21T03:18:10.047Z,100.00
2022-09-21T03:20:37.781Z,100.00
2022-09-21T03:23:04.452Z,100.00
2022-09-21T03:25:31.315Z,100.00
2022-09-21T03:27:58.521Z,100.00
2022-09-21T03:30:27.209Z,100.00
2022-09-21T03:32:54.304Z,100.00
2022-09-21T03:35:22.169Z,100.00
2022-09-21T03:37:50.956Z,100.00
2022-09-21T03:40:17.912Z,100.00
2022-09-21T03:42:45.150Z,100.00
2022-09-21T03:45:12.869Z,100.00
2022-09-21T03:47:39.907Z,100.00
2022-09-21T03:50:10.033Z,100.00
2022-09-21T03:52:38.465Z,100.00
2022-09-21T03:55:09.226Z,100.00
2022-09-21T03:57:36.948Z,100.00
2022-09-21T04:00:09.511Z,100.00
2022-09-21T04:02:42.193Z,100.00
2022-09-21T04:05:11.137Z,100.00
2022-09-21T04:07:37.978Z,100.00
2022-09-21T04:10:06.624Z,100.00
2022-09-21T04:12:35.000Z,100.00
2022-09-21T04:15:01.962Z,100.00
2022-09-21T04:17:29.341Z,100.00
2022-09-21T04:19:55.787Z,100.00
2022-09-21T04:22:24.793Z,100.00
2022-09-21T04:24:51.580Z,100.00
2022-09-21T04:27:18.477Z,100.00
2022-09-21T04:29:44.919Z,100.00
2022-09-21T04:32:12.039Z,100.00
2022-09-21T04:34:39.471Z,100.00
2022-09-21T04:37:09.783Z,100.00
2022-09-21T04:39:36.489Z,100.00
2022-09-21T04:42:03.046Z,100.00
2022-09-21T04:44:30.171Z,100.00
2022-09-21T04:46:58.194Z,100.00
2022-09-21T04:49:25.047Z,100.00
2022-09-21T04:51:52.089Z,100.00
2022-09-21T04:54:18.670Z,100.00
2022-09-21T04:56:45.187Z,100.00
2022-09-21T04:59:11.665Z,100.00
2022-09-21T05:01:38.212Z,100.00
2022-09-21T05:04:04.768Z,100.00
2022-09-21T05:06:33.042Z,100.00
2022-09-21T05:09:18.380Z,100.00
2022-09-21T05:11:45.678Z,100.00
2022-09-21T05:14:12.591Z,100.00
2022-09-21T05:16:39.011Z,100.00
2022-09-21T05:19:05.568Z,100.00
2022-09-21T05:21:32.147Z,100.00
2022-09-21T05:23:58.713Z,100.00
2022-09-21T05:26:25.562Z,100.00
2022-09-21T05:28:52.468Z,100.00
2022-09-21T05:31:51.257Z,100.00
2022-09-21T05:34:38.770Z,100.00
2022-09-21T05:37:12.068Z,100.00
2022-09-21T05:39:38.975Z,100.00
2022-09-21T05:42:06.075Z,100.00
2022-09-21T05:44:32.737Z,100.00
2022-09-21T05:47:17.227Z,100.00
2022-09-21T05:49:52.731Z,100.00
2022-09-21T05:52:25.257Z,100.00
2022-09-21T05:55:29.887Z,100.00
2022-09-21T05:58:10.323Z,100.00
2022-09-21T06:00:57.188Z,100.00
2022-09-21T06:03:29.189Z,100.00
2022-09-21T06:05:59.294Z,100.00
2022-09-21T06:08:26.739Z,100.00
2022-09-21T06:10:54.791Z,100.00
2022-09-21T06:13:21.346Z,100.00
2022-09-21T06:15:47.879Z,100.00
2022-09-21T06:18:17.793Z,100.00
2022-09-21T06:20:45.047Z,100.00
2022-09-21T06:23:13.247Z,100.00
2022-09-21T06:25:40.120Z,100.00
2022-09-21T06:28:10.164Z,100.00
2022-09-21T06:30:37.803Z,100.00
2022-09-21T06:33:08.341Z,100.00
2022-09-21T06:35:36.246Z,100.00
2022-09-21T06:38:07.839Z,100.00
2022-09-21T06:40:37.315Z,100.00
2022-09-21T06:43:05.391Z,100.00
2022-09-21T06:45:32.370Z,100.00
2022-09-21T06:47:59.178Z,100.00
2022-09-21T06:50:25.705Z,100.00
2022-09-21T06:52:52.233Z,100.00
2022-09-21T06:55:18.758Z,100.00
2022-09-21T06:57:45.342Z,100.00
2022-09-21T07:00:13.870Z,100.00
2022-09-21T07:02:45.025Z,100.00
2022-09-21T07:05:12.341Z,100.00
2022-09-21T07:07:40.171Z,100.00
2022-09-21T07:10:12.111Z,100.00
2022-09-21T07:12:41.351Z,100.00
2022-09-21T07:15:09.179Z,100.00
2022-09-21T07:17:37.933Z,100.00
2022-09-21T07:20:06.340Z,100.00
2022-09-21T07:22:33.366Z,100.00
2022-09-21T07:25:00.005Z,100.00
2022-09-21T07:27:28.110Z,100.00
2022-09-21T07:29:54.702Z,100.00
2022-09-21T07:32:21.271Z,100.00
2022-09-21T07:34:48.266Z,100.00
2022-09-21T07:37:15.192Z,100.00
2022-09-21T07:39:41.773Z,100.00
2022-09-21T07:42:08.535Z,100.00
2022-09-21T07:44:34.968Z,100.00
2022-09-21T07:47:03.508Z,100.00
2022-09-21T07:49:30.180Z,100.00
2022-09-21T07:52:01.424Z,100.00
2022-09-21T07:54:29.485Z,100.00
2022-09-21T07:57:14.542Z,100.00
2022-09-21T07:59:41.008Z,100.00
2022-09-21T08:02:07.660Z,100.00
2022-09-21T08:04:34.263Z,100.00
2022-09-21T08:07:00.684Z,100.00
2022-09-21T08:09:27.104Z,100.00
2022-09-21T08:11:55.664Z,100.00
2022-09-21T08:14:26.062Z,100.00
2022-09-21T08:16:53.157Z,100.00
2022-09-21T08:19:20.369Z,100.00
2022-09-21T08:21:53.497Z,100.00
2022-09-21T08:24:22.950Z,100.00
2022-09-21T08:26:52.201Z,100.00
2022-09-21T08:29:18.996Z,100.00
2022-09-21T08:31:46.805Z,100.00
2022-09-21T08:34:14.204Z,100.00
2022-09-21T08:36:41.012Z,100.00
2022-09-21T08:39:08.834Z,100.00
2022-09-21T08:42:13.265Z,100.00
2022-09-21T08:45:01.855Z,100.00
2022-09-21T08:47:43.779Z,100.00
2022-09-21T08:50:32.050Z,100.00
2022-09-21T08:53:04.656Z,100.00
2022-09-21T08:55:31.415Z,100.00
2022-09-21T08:57:59.353Z,100.00
2022-09-21T09:00:26.145Z,100.00
2022-09-21T09:03:12.351Z,100.00
2022-09-21T09:06:01.574Z,100.00
2022-09-21T09:08:52.280Z,100.00
2022-09-21T09:11:54.327Z,100.00
2022-09-21T09:14:39.382Z,100.00
2022-09-21T09:17:24.276Z,100.00
2022-09-21T09:19:58.472Z,100.00
2022-09-21T09:22:40.177Z,100.00
2022-09-21T09:25:17.780Z,100.00
2022-09-21T09:27:48.229Z,100.00
2022-09-21T09:30:17.493Z,100.00
2022-09-21T09:32:56.613Z,100.00
2022-09-21T09:35:29.481Z,100.00
2022-09-21T09:38:23.593Z,93.67
2022-09-21T09:41:10.255Z,95.31
2022-09-21T09:43:53.447Z,95.97
2022-09-21T09:46:35.401Z,92.17
2022-09-21T09:49:20.197Z,85.25
2022-09-21T09:51:47.966Z,85.37
2022-09-21T09:54:17.322Z,83.04
2022-09-21T09:56:44.135Z,83.53
2022-09-21T09:59:19.291Z,85.82
2022-09-21T10:01:47.311Z,83.83
2022-09-21T10:04:17.417Z,83.89
2022-09-21T10:06:46.804Z,84.15
2022-09-21T10:09:32.927Z,82.68
2022-09-21T10:12:16.939Z,76.28
2022-09-21T10:14:51.362Z,76.22
2022-09-21T10:17:19.089Z,78.24
2022-09-21T10:19:46.421Z,77.59
2022-09-21T10:22:20.321Z,79.45
2022-09-21T10:24:51.465Z,80.15
2022-09-21T10:27:25.444Z,78.91
2022-09-21T10:29:52.003Z,80.64
2022-09-21T10:32:22.165Z,78.92
2022-09-21T10:35:13.067Z,77.77
2022-09-21T10:37:43.833Z,77.25
2022-09-21T10:40:19.347Z,76.28
2022-09-21T10:42:48.291Z,78.99
2022-09-21T10:45:26.952Z,80.44
2022-09-21T10:48:13.928Z,82.49
2022-09-21T10:50:42.643Z,83.12
2022-09-21T10:53:09.060Z,81.97
2022-09-21T10:55:44.072Z,82.90
2022-09-21T10:58:19.499Z,82.21
2022-09-21T11:00:51.889Z,81.80
2022-09-21T11:03:30.322Z,81.55
2022-09-21T11:06:03.283Z,81.84
2022-09-21T11:08:56.161Z,83.99
2022-09-21T11:11:55.632Z,80.14
2022-09-21T11:14:28.207Z,82.15
2022-09-21T11:17:12.607Z,80.53
2022-09-21T11:19:42.558Z,80.50
2022-09-21T11:22:42.806Z,77.13
2022-09-21T11:25:20.458Z,78.50
2022-09-21T11:28:13.880Z,80.23
2022-09-21T11:31:01.286Z,75.85
2022-09-21T11:33:39.988Z,74.81
2022-09-21T11:36:12.587Z,75.54
2022-09-21T11:39:16.968Z,74.20
2022-09-21T11:41:58.971Z,74.66
2022-09-21T11:44:53.135Z,77.80
2022-09-21T11:47:34.677Z,76.86
2022-09-21T11:50:33.661Z,75.86
2022-09-21T11:53:22.599Z,75.66
2022-09-21T11:56:11.765Z,74.33
2022-09-21T11:58:53.314Z,76.14
2022-09-21T12:01:38.019Z,78.09
2022-09-21T12:04:11.179Z,76.11
2022-09-21T12:06:56.398Z,74.66
2022-09-21T12:09:38.141Z,73.05
2022-09-21T12:12:16.655Z,74.82
2022-09-21T12:14:59.709Z,75.88
2022-09-21T12:17:35.119Z,73.66
2022-09-21T12:20:21.731Z,68.42
2022-09-21T12:22:50.101Z,58.87
2022-09-21T12:25:38.518Z,55.04
2022-09-21T12:28:18.238Z,53.87
2022-09-21T12:30:51.262Z,50.27
2022-09-21T12:33:31.125Z,50.25
2022-09-21T12:36:10.643Z,44.45
2022-09-21T12:38:46.246Z,45.86
2022-09-21T12:41:37.753Z,39.22
2022-09-21T12:44:15.402Z,40.68
2022-09-21T12:46:51.821Z,37.98
2022-09-21T12:49:29.773Z,37.83
2022-09-21T12:52:01.434Z,39.20
2022-09-21T12:54:46.832Z,38.47
2022-09-21T12:57:53.686Z,37.89
2022-09-21T13:00:22.158Z,40.96
2022-09-21T13:02:55.823Z,42.44
2022-09-21T13:05:28.260Z,43.96
2022-09-21T13:08:04.551Z,42.07
2022-09-21T13:10:49.237Z,44.87
2022-09-21T13:13:45.892Z,44.64
2022-09-21T13:16:31.222Z,47.38
2022-09-21T13:19:02.917Z,47.11
2022-09-21T13:21:31.224Z,47.73
2022-09-21T13:24:03.601Z,48.78
2022-09-21T13:27:06.871Z,47.36
2022-09-21T13:29:36.012Z,47.33
2022-09-21T13:32:11.468Z,46.45
2022-09-21T13:34:39.062Z,45.46
2022-09-21T13:37:19.491Z,45.77
2022-09-21T13:39:55.688Z,41.98
2022-09-21T13:42:37.003Z,44.11
2022-09-21T13:45:15.669Z,42.54
2022-09-21T13:47:45.294Z,44.49
2022-09-21T13:50:18.109Z,44.38
2022-09-21T13:52:52.031Z,43.47
2022-09-21T13:55:24.662Z,43.36
2022-09-21T13:57:55.796Z,44.24
2022-09-21T14:00:22.334Z,43.57
2022-09-21T14:02:49.089Z,41.99
2022-09-21T14:05:43.516Z,40.99
2022-09-21T14:08:16.221Z,42.81
2022-09-21T14:10:52.361Z,42.99
2022-09-21T14:13:39.121Z,42.88
2022-09-21T14:16:37.370Z,44.67
2022-09-21T14:19:26.719Z,43.59
2022-09-21T14:22:08.501Z,44.13
2022-09-21T14:24:36.183Z,44.44
2022-09-21T14:27:13.468Z,43.77
2022-09-21T14:29:53.028Z,39.63
2022-09-21T14:32:24.797Z,38.65
2022-09-21T14:34:57.088Z,39.96
2022-09-21T14:37:52.083Z,36.42
2022-09-21T14:40:28.902Z,38.99
2022-09-21T14:42:58.788Z,41.57
2022-09-21T14:45:46.137Z,41.62
2022-09-21T14:48:37.396Z,43.74
2022-09-21T14:51:17.101Z,46.30
2022-09-21T14:54:02.188Z,48.16
2022-09-21T14:56:56.801Z,54.18
2022-09-21T14:59:29.137Z,56.51
2022-09-21T15:02:00.029Z,49.56
2022-09-21T15:04:29.449Z,44.01
2022-09-21T15:07:26.772Z,43.42
2022-09-21T15:10:45.210Z,42.83
2022-09-21T15:13:23.944Z,43.82
2022-09-21T15:16:11.932Z,42.66
2022-09-21T15:18:42.489Z,42.98
2022-09-21T15:21:21.929Z,43.27
2022-09-21T15:23:51.414Z,43.49
2022-09-21T15:26:26.439Z,43.46
2022-09-21T15:29:09.646Z,43.55
2022-09-21T15:31:42.013Z,44.55
2022-09-21T15:34:13.117Z,44.44
2022-09-21T15:36:42.157Z,44.68
2022-09-21T15:39:27.794Z,44.27
2022-09-21T15:42:09.502Z,44.54
2022-09-21T15:44:37.976Z,46.17
2022-09-21T15:47:08.473Z,45.44
2022-09-21T15:49:36.227Z,46.77
2022-09-21T15:52:12.863Z,46.53
2022-09-21T15:54:52.111Z,47.07
2022-09-21T15:57:28.483Z,47.67
2022-09-21T15:59:56.184Z,46.57
2022-09-21T16:02:26.828Z,48.19
2022-09-21T16:04:53.484Z,49.58
2022-09-21T16:07:35.557Z,49.68
2022-09-21T16:10:13.624Z,48.73
2022-09-21T16:12:41.405Z,48.95
2022-09-21T16:15:23.135Z,49.67
2022-09-21T16:18:05.119Z,51.04
2022-09-21T16:20:47.376Z,52.25
2022-09-21T16:23:17.361Z,53.82
2022-09-21T16:25:43.956Z,56.43
2022-09-21T16:28:16.322Z,56.93
2022-09-21T16:30:53.431Z,59.99
2022-09-21T16:33:41.119Z,62.18
2022-09-21T16:36:20.071Z,61.91
2022-09-21T16:38:55.665Z,64.86
2022-09-21T16:41:24.772Z,62.55
2022-09-21T16:43:52.059Z,63.19
2022-09-21T16:46:18.928Z,63.23
2022-09-21T16:48:45.451Z,64.31
2022-09-21T16:51:13.555Z,71.31
2022-09-21T16:53:40.165Z,71.64
2022-09-21T16:56:14.310Z,74.55
2022-09-21T16:58:43.071Z,72.01
2022-09-21T17:01:15.423Z,73.87
2022-09-21T17:03:42.466Z,75.95
2022-09-21T17:06:15.756Z,78.26
2022-09-21T17:08:42.307Z,79.12
2022-09-21T17:11:08.761Z,78.31
2022-09-21T17:13:35.301Z,78.73
2022-09-21T17:16:02.139Z,81.50
2022-09-21T17:18:29.151Z,81.90
2022-09-21T17:20:55.726Z,83.98
2022-09-21T17:23:27.559Z,86.71
2022-09-21T17:25:54.031Z,87.58
2022-09-21T17:28:26.101Z,91.19
2022-09-21T17:30:54.177Z,89.90
2022-09-21T17:33:21.462Z,91.34
2022-09-21T17:35:50.966Z,93.56
2022-09-21T17:38:18.158Z,95.30
2022-09-21T17:40:45.170Z,96.14
2022-09-21T17:43:29.640Z,99.27
2022-09-21T17:46:08.002Z,100.00
2022-09-21T17:48:35.683Z,100.00
2022-09-21T17:51:02.642Z,100.00
2022-09-21T17:53:37.342Z,100.00
2022-09-21T17:56:28.550Z,100.00
2022-09-21T17:59:02.784Z,100.00
2022-09-21T18:01:32.246Z,100.00
2022-09-21T18:03:58.946Z,100.00
2022-09-21T18:06:25.973Z,100.00
2022-09-21T18:08:53.787Z,100.00
2022-09-21T18:12:18.091Z,100.00
2022-09-21T18:14:57.561Z,100.00
2022-09-21T18:17:51.160Z,100.00
2022-09-21T18:20:47.715Z,100.00
2022-09-21T18:23:21.590Z,100.00
2022-09-21T18:25:52.860Z,100.00
2022-09-21T18:28:34.472Z,100.00
2022-09-21T18:31:18.991Z,100.00
2022-09-21T18:34:00.227Z,100.00
2022-09-21T18:36:48.557Z,100.00
2022-09-21T18:39:23.795Z,100.00
2022-09-21T18:42:22.839Z,100.00
2022-09-21T18:45:12.475Z,100.00
2022-09-21T18:47:44.329Z,100.00
2022-09-21T18:50:23.623Z,100.00
2022-09-21T18:52:54.104Z,100.00
2022-09-21T18:55:31.149Z,100.00
2022-09-21T18:57:59.785Z,100.00
2022-09-21T19:00:31.785Z,100.00
2022-09-21T19:03:17.096Z,100.00
2022-09-21T19:06:12.796Z,100.00
2022-09-21T19:08:48.650Z,100.00
2022-09-21T19:11:44.281Z,100.00
2022-09-21T19:14:28.352Z,100.00
2022-09-21T19:17:13.743Z,100.00
2022-09-21T19:19:49.444Z,100.00
2022-09-21T19:22:24.523Z,100.00
2022-09-21T19:25:07.958Z,100.00
2022-09-21T19:27:39.808Z,100.00
2022-09-21T19:30:09.429Z,100.00
2022-09-21T19:32:49.442Z,100.00
2022-09-21T19:35:30.035Z,100.00
2022-09-21T19:37:59.597Z,100.00
2022-09-21T19:40:32.416Z,100.00
2022-09-21T19:43:08.135Z,100.00
2022-09-21T19:45:56.112Z,100.00
2022-09-21T19:48:27.164Z,100.00
2022-09-21T19:50:57.153Z,100.00
2022-09-21T19:53:42.784Z,100.00
2022-09-21T19:56:31.668Z,100.00
2022-09-21T19:59:17.205Z,100.00
2022-09-21T20:02:01.235Z,100.00
2022-09-21T20:04:40.622Z,100.00
2022-09-21T20:07:30.001Z,100.00
2022-09-21T20:10:24.715Z,100.00
2022-09-21T20:13:23.807Z,100.00
2022-09-21T20:15:57.052Z,100.00
2022-09-21T20:18:32.371Z,100.00
2022-09-21T20:20:58.815Z,100.00
2022-09-21T20:23:25.606Z,100.00
2022-09-21T20:26:05.148Z,100.00
2022-09-21T20:28:31.853Z,100.00
2022-09-21T20:30:58.440Z,100.00
2022-09-21T20:33:26.890Z,100.00
2022-09-21T20:35:55.351Z,100.00
2022-09-21T20:38:22.566Z,100.00
2022-09-21T20:40:49.598Z,100.00
2022-09-21T20:43:16.181Z,100.00
2022-09-21T20:45:47.683Z,100.00
2022-09-21T20:48:14.345Z,100.00
2022-09-21T20:50:42.586Z,100.00
2022-09-21T20:53:09.791Z,100.00
2022-09-21T20:55:37.050Z,100.00
2022-09-21T20:58:03.530Z,100.00
2022-09-21T21:00:30.547Z,100.00
2022-09-21T21:03:01.386Z,100.00
2022-09-21T21:05:29.176Z,100.00
2022-09-21T21:07:56.541Z,100.00
2022-09-21T21:10:23.605Z,100.00
2022-09-21T21:12:50.566Z,100.00
2022-09-21T21:15:17.441Z,100.00
2022-09-21T21:17:43.882Z,100.00
2022-09-21T21:20:10.819Z,100.00
2022-09-21T21:22:37.527Z,100.00
2022-09-21T21:25:04.511Z,100.00
2022-09-21T21:27:31.453Z,100.00
2022-09-21T21:29:58.492Z,100.00
2022-09-21T21:32:26.491Z,100.00
2022-09-21T21:34:54.103Z,100.00
2022-09-21T21:37:24.899Z,100.00
2022-09-21T21:39:52.393Z,100.00
2022-09-21T21:42:20.634Z,100.00
2022-09-21T21:44:48.140Z,100.00
2022-09-21T21:47:38.241Z,100.00
2022-09-21T21:50:01.364Z,100.00
2022-09-21T21:52:27.773Z,100.00
2022-09-21T21:54:54.647Z,100.00
2022-09-21T21:57:21.097Z,100.00
2022-09-21T21:59:47.652Z,100.00
2022-09-21T22:02:15.352Z,100.00
2022-09-21T22:04:42.224Z,100.00
2022-09-21T22:07:08.670Z,100.00
2022-09-21T22:09:35.192Z,100.00
2022-09-21T22:12:02.471Z,100.00
2022-09-21T22:14:29.020Z,100.00
2022-09-21T22:16:55.663Z,100.00
2022-09-21T22:19:22.170Z,100.00
2022-09-21T22:21:53.868Z,100.00
2022-09-21T22:24:21.547Z,100.00
2022-09-21T22:26:51.515Z,100.00
2022-09-21T22:29:18.061Z,100.00
2022-09-21T22:31:47.071Z,100.00
2022-09-21T22:34:14.580Z,100.00
2022-09-21T22:36:43.313Z,100.00
2022-09-21T22:39:10.184Z,100.00
2022-09-21T22:41:39.238Z,100.00
2022-09-21T22:44:06.461Z,100.00
2022-09-21T22:46:33.673Z,100.00
2022-09-21T22:49:00.670Z,100.00
2022-09-21T22:51:29.221Z,100.00
2022-09-21T22:53:56.503Z,100.00
2022-09-21T22:56:25.793Z,100.00
2022-09-21T22:58:54.906Z,100.00
2022-09-21T23:01:29.664Z,100.00
2022-09-21T23:04:01.267Z,100.00
2022-09-21T23:06:32.517Z,100.00
2022-09-21T23:09:00.042Z,100.00
2022-09-21T23:11:29.486Z,100.00
2022-09-21T23:13:57.473Z,100.00
2022-09-21T23:16:25.409Z,100.00
2022-09-21T23:18:52.321Z,100.00
2022-09-21T23:21:22.869Z,100.00
2022-09-21T23:23:49.798Z,100.00
2022-09-21T23:26:26.289Z,100.00
2022-09-21T23:28:55.445Z,100.00
2022-09-21T23:31:23.143Z,100.00
2022-09-21T23:33:51.550Z,100.00
2022-09-21T23:36:21.080Z,100.00
2022-09-21T23:38:48.480Z,100.00
2022-09-21T23:41:20.556Z,100.00
2022-09-21T23:43:47.808Z,100.00
2022-09-21T23:46:19.835Z,100.00
2022-09-21T23:48:46.874Z,100.00
2022-09-21T23:51:13.893Z,100.00
2022-09-21T23:53:41.030Z,100.00
2022-09-21T23:56:09.114Z,100.00
2022-09-21T23:58:35.540Z,100.00
